Date,TemperatureHighF,TemperatureAvgF,TemperatureLowF,DewpointHighF,DewpointAvgF,DewpointLowF,HumidityHigh,HumidityAvg,HumidityLow,PressureMaxIn,PressureMinIn,WindSpeedMaxMPH,WindSpeedAvgMPH,GustSpeedMaxMPH,PrecipitationSumIn
2013-1-1,47.3,45.5,42.1,44.7,43.3,39.7,99,92,81,29.93,29.89,0,0,0,0.13
2013-1-2,46.4,42.8,37.9,44.9,35.2,29.8,99,75,54,30.11,29.86,0,0,0,0.01
2013-1-3,41.5,36.6,33.2,35.5,28.6,21.0,96,74,53,30.24,30.08,0,0,0,0.00
2013-1-4,41.8,34.5,29.5,21.4,17.9,11.5,65,52,29,30.29,30.20,0,0,0,0.00
2013-1-5,48.2,37.2,27.5,29.2,19.6,13.2,71,51,27,30.35,30.16,0,0,0,0.00
2013-1-6,50.1,40.7,34.0,35.4,29.8,26.0,80,65,54,30.18,29.98,0,0,0,0.01
2013-1-7,47.6,38.8,30.0,28.6,24.9,22.4,75,58,38,30.38,30.13,0,0,0,0.00
2013-1-8,50.1,38.1,27.9,33.2,28.9,23.9,88,71,48,30.42,30.31,0,0,0,0.00
2013-1-9,59.0,50.2,38.6,52.1,44.1,32.2,96,80,66,30.40,30.31,0,0,0,0.00
2013-1-10,60.2,56.1,51.1,51.4,45.3,31.6,86,68,45,30.43,30.31,0,0,0,0.00
2013-1-11,53.3,44.9,42.1,53.3,43.5,32.8,100,96,50,30.32,30.08,0,0,0,0.23
2013-1-12,70.1,57.7,45.8,64.2,55.5,45.8,100,93,68,30.10,30.01,0,0,0,0.00
2013-1-13,67.9,61.5,56.6,58.3,56.7,54.8,98,85,69,30.02,29.92,0,0,0,0.01
2013-1-14,62.0,59.0,50.4,60.9,58.5,49.9,100,98,85,30.08,29.95,0,0,0,1.63
2013-1-15,50.8,44.4,39.2,50.8,44.4,39.2,100,100,100,30.14,30.02,0,0,0,1.54
2013-1-16,51.0,44.6,39.1,51.0,44.6,39.1,100,100,100,30.03,29.91,0,0,0,0.29
2013-1-17,50.2,42.3,32.7,50.2,42.1,29.7,100,99,85,30.16,29.83,0,0,0,1.42
2013-1-18,42.6,34.8,28.8,29.7,23.8,17.2,90,65,40,30.49,30.15,0,0,0,0.03
2013-1-19,48.6,37.3,26.4,30.3,26.5,23.4,93,67,38,30.46,30.10,0,0,0,0.01
2013-1-20,53.9,44.4,32.9,31.7,27.2,21.0,77,52,33,30.10,29.99,0,0,0,0.00
2013-1-21,51.0,40.3,31.2,29.7,20.6,2.5,72,47,26,30.02,29.88,0,0,0,0.00
2013-1-22,30.9,25.5,20.8,5.8,-3.4,-10.6,43,28,18,30.24,29.94,0,0,0,0.00
2013-1-23,40.8,30.3,23.5,21.3,10.6,-4.5,67,44,28,30.30,29.97,0,0,0,0.00
2013-1-24,44.1,33.0,21.1,28.2,9.6,-2.1,67,38,23,30.46,29.84,0,0,0,0.00
2013-1-25,25.0,21.6,18.9,22.8,14.0,2.5,92,74,45,30.47,30.08,0,0,0,0.00
2013-1-26,41.9,34.3,23.8,27.9,24.0,20.9,94,67,45,30.34,30.07,0,0,0,0.03
2013-1-27,35.8,30.8,25.6,28.7,23.6,20.2,85,75,65,30.54,30.33,0,0,0,0.03
2013-1-28,54.1,41.6,31.8,42.5,35.6,27.9,92,80,58,30.43,30.17,0,0,0,0.11
2013-1-29,67.3,55.2,41.9,55.1,47.0,39.6,94,76,45,30.17,29.93,0,0,0,0.00
2013-1-30,61.8,58.6,46.5,60.4,57.0,42.5,98,94,85,29.93,29.34,0,0,0,1.74
2013-1-31,46.5,35.9,30.4,43.3,23.3,16.8,89,60,46,29.96,29.39,0,0,0,0.00
2013-2-1,37.9,26.2,20.5,30.4,10.0,0.9,87,51,37,30.36,29.83,0,0,0,0.00
2013-2-2,37.2,28.4,18.1,23.3,13.3,5.3,74,54,37,30.35,29.96,0,0,0,0.00
2013-2-3,40.8,36.5,32.7,31.0,23.9,21.5,73,60,52,29.97,29.78,0,0,0,0.00
2013-2-4,47.3,41.4,35.6,24.4,22.5,17.7,55,47,35,30.07,29.85,0,0,0,0.00
2013-2-5,53.8,47.2,36.5,35.1,28.6,15.7,68,49,42,29.92,29.78,0,0,0,0.00
2013-2-6,56.9,50.8,41.6,31.8,23.5,11.7,61,37,17,30.18,29.88,0,0,0,0.00
2013-2-7,52.8,52.8,52.8,17.0,17.0,17.0,24,24,24,30.18,29.92,0,0,0,0.00
2013-2-8,52.8,49.2,40.2,45.1,28.8,17.0,100,51,24,30.01,29.79,0,0,0,0.00
2013-2-9,54.1,48.7,33.2,28.5,19.1,6.3,53,33,17,30.29,29.99,0,0,0,0.00
2013-2-10,52.3,49.4,36.8,27.0,20.2,15.6,62,32,23,30.39,30.08,0,0,0,0.00
2013-2-11,56.7,52.7,48.5,53.9,36.5,24.1,100,57,38,30.08,29.85,0,0,0,0.00
2013-2-12,57.0,53.2,42.1,41.2,28.8,13.6,56,40,18,30.05,29.81,0,0,0,0.00
2013-2-13,52.2,45.9,40.3,43.5,36.0,26.1,100,76,36,29.86,29.55,0,0,0,0.03
2013-2-14,49.1,46.6,42.6,42.3,34.8,30.3,99,67,48,29.99,29.79,0,0,0,0.00
2013-2-15,56.5,47.3,31.9,38.9,31.6,14.4,89,56,34,30.06,29.84,0,0,0,0.02
2013-2-16,37.8,32.6,23.5,27.9,19.0,8.7,80,57,39,29.96,29.79,0,0,0,0.00
2013-2-17,33.2,26.4,20.2,16.7,7.4,2.8,81,46,28,30.21,29.94,0,0,0,0.00
2013-2-18,49.6,36.7,22.9,23.7,15.8,3.7,62,43,30,30.33,30.11,0,0,0,0.00
2013-2-19,51.1,40.4,32.7,41.1,25.3,8.3,96,59,29,30.12,29.77,0,0,0,0.06
2013-2-20,46.0,37.0,29.8,12.9,5.2,-5.7,47,28,14,30.10,29.95,0,0,0,0.00
2013-2-21,56.3,42.0,28.1,32.5,11.3,2.7,82,30,15,30.19,30.02,0,0,0,0.03
2013-2-22,37.3,33.7,32.2,35.3,33.1,31.0,100,98,82,30.21,30.09,0,0,0,0.33
2013-2-23,48.9,39.6,32.7,44.2,38.3,32.7,100,96,80,30.10,29.77,0,0,0,0.17
2013-2-24,53.8,46.7,39.1,42.8,27.4,17.3,99,50,24,29.99,29.75,0,0,0,0.00
2013-2-25,41.6,35.9,32.8,25.2,22.8,19.3,65,59,41,30.15,29.95,0,0,0,0.00
2013-2-26,36.6,33.3,29.5,35.8,30.9,20.2,99,92,58,30.08,29.56,0,0,0,0.97
2013-2-27,53.8,43.4,32.4,36.6,31.8,27.0,100,65,48,29.73,29.59,0,0,0,0.00
2013-2-28,41.5,36.2,33.1,28.4,24.7,21.6,75,63,54,29.84,29.64,0,0,0,0.00
2013-3-1,39.9,36.0,33.2,29.2,26.3,24.1,76,67,57,29.88,29.81,0,0,0,0.00
2013-3-2,40.5,34.6,27.2,28.5,23.1,13.6,82,63,47,29.91,29.78,0,0,0,0.00
2013-3-3,33.1,28.4,24.7,17.3,13.7,11.0,66,54,45,29.97,29.86,0,0,0,0.00
2013-3-4,51.0,37.0,24.8,14.8,9.6,-1.0,58,35,13,30.08,29.94,0,0,0,0.00
2013-3-5,40.5,37.9,36.6,38.0,29.5,13.2,100,75,36,30.00,29.57,0,0,0,0.85
2013-3-6,37.2,32.2,28.5,30.7,22.5,18.2,78,67,59,30.09,29.57,0,0,0,0.00
2013-3-7,41.2,33.8,29.0,25.8,22.8,20.4,78,64,52,30.24,30.06,0,0,0,0.00
2013-3-8,48.5,37.4,27.8,24.5,20.7,16.1,73,52,31,30.29,30.19,0,0,0,0.00
2013-3-9,60.5,45.1,30.4,28.6,23.9,20.0,67,46,23,30.32,30.18,0,0,0,0.00
2013-3-10,62.3,50.7,39.3,34.1,30.7,27.1,66,48,32,30.24,30.10,0,0,0,0.00
2013-3-11,49.5,47.4,44.8,49.1,40.8,32.2,100,79,52,30.11,29.78,0,0,0,0.68
2013-3-12,51.1,46.9,39.2,50.1,38.4,25.0,100,74,46,29.95,29.69,0,0,0,0.44
2013-3-13,44.5,38.4,30.6,30.1,21.5,12.3,70,51,35,30.12,29.92,0,0,0,0.00
2013-3-14,30.6,29.6,28.2,15.2,13.6,12.2,54,51,48,30.15,30.11,0,0,0,0.00
2013-3-22,40.6,40.4,39.9,27.0,26.4,25.5,58,57,56,29.96,29.95,0,0,0,0.00
2013-3-23,54.2,44.6,36.5,35.0,30.2,25.7,78,58,39,30.01,29.84,6,0,6,0.00
2013-3-24,38.6,36.5,33.4,37.6,35.7,33.4,100,97,92,29.70,29.50,10,1,12,0.75
2013-3-25,38.3,33.2,30.7,33.4,27.8,21.4,100,81,53,29.81,29.49,31,2,31,0.06
2013-3-26,39.6,34.6,30.6,25.9,22.8,20.1,71,62,51,30.13,29.81,23,2,23,0.00
2013-3-27,34.1,33.8,33.4,24.6,22.3,20.4,69,62,58,30.13,30.11,20,4,20,0.00
2013-3-29,46.9,45.0,43.2,30.4,29.4,27.7,60,54,47,30.19,30.16,7,0,9,0.00
2013-3-30,61.3,50.0,38.2,38.9,31.5,24.6,73,51,28,30.18,29.99,12,1,12,0.00
2013-3-31,61.8,52.0,45.8,52.6,47.1,37.7,100,85,57,29.99,29.75,12,0,12,0.30
2013-4-1,60.1,52.8,42.9,50.3,39.2,29.1,98,62,44,29.91,29.77,21,2,21,0.00
2013-4-2,54.1,45.8,34.7,31.1,20.1,8.8,66,39,18,30.11,29.91,27,4,27,0.00
2013-4-3,58.6,46.8,32.7,22.7,16.4,9.4,51,30,21,30.23,30.08,11,1,11,0.00
2013-4-4,44.2,36.9,32.8,34.8,23.9,8.9,99,66,26,30.26,29.95,15,1,15,0.63
2013-4-5,59.3,47.0,35.0,43.6,36.2,26.8,100,71,29,30.02,29.89,20,2,20,0.12
2013-4-6,64.7,52.2,38.8,39.2,32.5,27.8,76,50,27,30.17,30.01,14,1,14,0.00
2013-4-7,69.8,57.3,46.0,44.3,39.3,32.8,71,52,35,30.16,30.00,14,1,14,0.00
2013-4-8,76.5,62.4,47.4,50.9,45.9,40.7,79,57,38,30.09,29.95,17,1,17,0.00
2013-4-9,81.4,68.9,54.2,53.3,49.7,45.0,79,53,29,30.09,29.96,15,1,15,0.00
2013-4-10,84.1,71.9,57.5,56.7,52.4,48.9,80,53,31,29.99,29.83,12,0,12,0.00
2013-4-11,78.3,69.3,60.9,62.6,56.1,51.3,91,65,39,29.84,29.60,14,1,14,0.05
2013-4-12,76.5,63.6,52.9,64.4,51.3,31.6,100,69,29,29.77,29.52,28,3,28,1.00
2013-4-13,69.6,59.1,50.1,38.7,33.1,24.6,60,40,20,29.96,29.72,25,4,25,0.00
2013-4-14,73.5,60.4,46.1,49.2,38.1,32.4,71,46,25,30.02,29.91,12,1,12,0.00
2013-4-15,57.6,53.7,51.6,54.8,52.9,48.2,100,97,71,30.16,29.91,7,0,7,0.53
2013-4-16,77.4,63.9,54.2,60.2,56.3,54.2,100,79,50,30.22,30.09,8,0,8,0.01
2013-4-17,71.6,64.0,58.0,63.7,58.5,55.0,94,83,61,30.16,30.03,13,0,13,0.06
2013-4-18,74.4,66.0,58.9,61.5,57.6,53.6,95,76,50,30.07,29.87,11,1,11,0.06
2013-4-19,65.5,61.1,47.3,63.7,57.0,34.5,98,87,62,29.87,29.63,26,3,26,0.79
2013-4-20,59.2,48.4,39.6,36.0,28.8,22.4,66,48,30,30.24,29.84,27,3,27,0.00
2013-4-21,58.0,47.8,37.5,34.8,30.6,25.0,71,52,31,30.43,30.24,15,2,15,0.00
2013-4-22,58.4,49.3,39.6,35.1,30.8,25.5,78,51,31,30.40,30.19,13,2,13,0.00
2013-4-23,69.9,54.5,37.3,46.7,38.6,26.4,85,57,34,30.24,30.03,12,0,12,0.00
2013-4-24,56.3,55.1,54.2,47.5,46.7,45.9,78,73,70,30.05,30.00,11,1,11,0.00
2013-5-8,66.8,61.0,55.5,57.8,54.4,51.1,94,80,59,29.97,29.88,15,1,15,0.97
2013-5-9,78.5,64.8,51.1,55.4,50.6,43.9,97,64,31,30.02,29.94,22,2,22,0.00
2013-5-10,79.4,67.2,54.5,59.5,55.1,49.3,87,67,42,30.00,29.86,16,1,16,0.00
2013-5-11,70.1,63.8,58.9,64.6,59.1,51.5,95,85,67,29.86,29.75,22,0,22,0.18
2013-5-12,61.5,56.7,45.4,52.1,38.8,27.3,78,53,28,30.01,29.79,26,4,26,0.00
2013-5-13,62.0,51.6,39.1,39.4,29.4,21.9,75,45,23,30.15,30.00,24,2,24,0.00
2013-5-14,70.9,56.3,38.8,46.6,38.7,29.9,76,54,32,30.19,29.99,13,1,13,0.00
2013-5-15,88.6,73.0,52.9,57.9,50.0,43.6,80,48,23,29.99,29.84,21,2,21,0.00
2013-5-16,73.2,67.0,61.5,52.3,49.7,47.1,62,54,44,29.95,29.83,10,1,10,0.00
2013-5-17,83.2,68.9,57.6,64.3,56.7,47.9,97,67,42,30.02,29.92,17,0,17,0.02
2013-5-18,68.3,63.2,59.9,64.7,62.2,59.6,100,97,86,30.09,29.98,5,0,5,1.05
2013-5-19,72.0,65.5,62.4,68.6,64.7,62.4,100,97,81,30.04,29.95,5,0,5,1.85
2013-5-20,81.1,68.9,63.7,68.0,65.1,58.8,100,89,49,30.05,29.92,7,0,7,0.05
2013-5-21,83.8,73.1,63.5,69.2,65.8,61.8,99,80,52,29.95,29.85,8,0,8,0.37
2013-5-22,79.4,67.7,59.5,69.5,63.6,58.7,99,88,67,29.93,29.85,27,0,27,0.23
2013-5-29,83.0,75.6,64.8,63.9,60.6,58.2,81,61,44,30.12,30.08,6,0,6,0.02
2013-5-30,82.0,70.9,59.6,65.2,60.8,57.8,95,72,48,30.19,30.09,6,0,6,0.00
2013-5-31,82.8,71.4,60.1,65.2,60.9,57.8,93,71,48,30.14,30.02,10,0,10,0.00
2013-6-1,82.6,73.0,63.2,66.7,62.3,57.8,93,71,44,30.04,29.92,13,0,13,0.00
2013-6-2,74.2,68.0,64.2,67.7,64.5,61.6,100,89,72,29.94,29.84,11,0,11,0.19
2013-6-3,81.1,70.9,63.9,69.3,61.6,54.2,100,76,40,29.90,29.76,21,2,21,0.00
2013-6-4,72.8,65.4,61.3,63.3,59.9,57.8,94,83,61,30.06,29.89,7,0,7,0.03
2013-6-5,67.6,64.3,60.7,64.6,61.8,58.5,97,92,83,30.06,29.95,6,0,6,0.13
2013-6-6,76.3,67.5,62.1,70.5,65.5,62.1,100,94,75,29.95,29.72,5,0,5,1.13
2013-6-7,78.1,69.1,64.0,69.9,64.8,60.7,100,88,59,29.78,29.58,14,1,14,0.30
2013-6-8,78.6,69.6,61.3,68.6,65.0,61.3,100,86,62,30.02,29.75,6,0,6,0.97
2013-6-9,82.2,69.3,63.7,70.8,66.4,62.4,100,92,59,30.08,29.99,15,0,15,1.15
2013-6-10,76.8,69.6,65.3,70.3,67.0,65.0,100,92,75,29.99,29.80,10,0,10,0.65
2013-6-11,81.1,71.2,60.7,66.5,61.0,57.0,97,73,47,29.92,29.84,20,2,20,0.03
2013-6-12,89.5,77.0,62.9,73.2,66.1,60.0,93,71,45,29.92,29.81,20,1,20,0.00
2013-6-13,72.3,70.8,69.9,67.0,64.3,61.8,86,80,73,29.81,29.77,6,0,6,0.00
2013-7-3,76.3,72.0,65.3,74.0,69.4,65.0,100,92,79,30.15,30.07,7,0,7,0.37
2013-7-4,77.6,69.5,64.8,73.4,67.9,64.8,100,95,77,30.18,30.08,14,0,14,1.18
2013-7-5,80.7,70.6,66.0,73.4,68.5,65.7,100,94,69,30.17,30.10,8,0,8,0.74
2013-7-6,82.4,72.5,66.0,72.1,68.4,66.0,100,88,65,30.16,30.03,15,0,15,0.62
2013-7-7,81.8,72.5,67.1,73.3,69.6,65.0,100,92,69,30.10,30.00,14,0,14,0.76
2013-7-8,83.8,74.3,65.8,72.2,68.9,65.6,100,85,58,30.11,30.03,6,0,6,0.01
2013-7-9,85.1,75.9,67.1,74.6,69.8,66.3,100,83,58,30.08,29.98,7,0,7,0.00
2013-7-23,85.1,78.2,68.3,69.1,65.1,60.5,91,65,48,29.79,29.69,15,2,17,0.01
2013-7-24,87.4,75.3,67.6,71.2,66.3,57.5,91,75,38,29.79,29.68,18,1,18,0.00
2013-7-25,79.8,71.4,65.5,69.2,65.6,63.1,96,83,60,29.98,29.77,9,0,9,0.00
2013-7-26,81.1,71.3,63.2,70.2,66.1,62.9,99,85,62,30.04,29.94,6,0,6,0.00
2013-7-27,76.0,69.3,66.0,70.0,67.5,65.5,100,94,77,29.95,29.84,8,0,8,2.28
2013-7-28,81.8,71.0,64.5,71.1,66.5,61.1,100,87,58,29.96,29.85,7,0,7,0.03
2013-7-29,80.5,69.9,58.4,66.9,59.4,50.6,95,71,43,30.14,29.94,8,0,9,0.00
2013-7-30,76.8,68.6,60.2,67.9,61.3,55.0,92,78,56,30.18,30.09,5,0,5,0.00
2013-7-31,69.1,66.6,63.5,67.7,65.6,62.3,99,97,93,30.11,29.93,4,0,4,0.16
2013-8-1,84.3,73.6,66.0,71.9,66.2,61.0,100,80,47,29.93,29.81,13,0,14,0.07
2013-8-2,82.6,72.2,62.9,71.5,65.5,61.7,97,81,56,29.97,29.87,6,0,6,0.00
2013-8-3,84.7,74.0,66.4,71.2,65.7,60.7,99,78,46,29.96,29.88,11,1,11,0.00
2013-8-4,82.8,73.0,63.5,69.8,61.4,52.2,98,70,37,29.99,29.86,17,0,17,0.02
2013-8-5,80.7,70.4,61.8,69.8,63.5,57.8,99,80,58,30.03,29.91,4,0,7,0.20
2013-8-6,78.5,71.8,67.1,70.1,68.1,66.8,100,89,71,29.98,29.88,6,0,6,0.00
2013-8-7,72.8,70.0,68.3,72.0,69.3,66.9,100,98,93,30.03,29.95,2,0,7,0.21
2013-8-8,81.6,73.3,68.8,74.6,71.0,68.8,100,93,72,30.00,29.92,5,0,5,0.19
2013-8-9,85.5,73.9,69.8,75.2,71.2,68.7,100,92,65,29.98,29.91,14,0,14,0.89
2013-8-10,84.3,71.9,66.1,75.2,69.8,65.5,100,94,68,30.05,29.96,13,0,13,1.76
2013-8-11,85.3,73.7,65.2,74.1,69.4,64.9,99,88,59,30.06,29.96,7,0,8,0.00
2013-8-12,84.0,75.8,69.4,73.8,68.9,65.9,96,80,63,30.00,29.93,14,1,14,0.00
2013-9-3,83.8,72.6,64.3,64.7,62.7,60.7,91,72,48,29.93,29.79,10,1,10,1.50
2013-9-4,80.3,68.8,58.4,68.8,62.0,56.9,96,80,57,30.06,29.91,5,0,5,0.00
2013-9-5,83.2,69.9,58.6,65.8,60.7,53.9,97,75,38,30.08,30.00,6,0,6,0.00
2013-9-6,77.2,67.9,60.5,65.2,60.5,56.2,94,78,62,30.16,30.03,6,0,6,0.00
2013-9-7,78.1,68.5,58.3,67.1,62.7,57.5,97,83,62,30.08,29.92,9,0,9,0.00
2013-9-8,82.8,71.0,62.1,70.0,64.6,60.6,98,82,52,29.94,29.87,9,0,9,0.00
2013-9-9,81.4,72.0,63.9,70.0,66.1,62.7,97,83,65,30.07,29.93,6,0,6,0.00
2013-9-22,72.1,62.5,56.6,54.1,53.1,51.4,86,73,51,29.87,29.76,13,2,13,0.13
2013-9-23,68.3,58.2,51.0,59.6,52.9,47.2,97,83,63,30.04,29.87,6,0,6,0.00
2013-9-24,73.9,62.3,53.9,61.9,57.2,53.6,99,85,58,30.05,29.87,5,0,5,0.01
2013-9-25,62.4,59.3,57.2,62.1,58.7,56.5,100,98,94,29.89,29.83,4,0,4,0.18
2013-9-26,69.8,64.0,55.1,58.4,54.5,49.4,96,73,51,30.01,29.91,10,1,10,0.00
2013-9-27,70.9,60.8,51.3,59.0,54.8,50.8,99,82,56,30.14,30.01,4,0,9,0.01
2013-9-28,67.1,60.6,56.3,56.0,54.2,50.8,93,80,62,30.21,30.12,7,0,7,0.00
2013-9-29,68.8,60.7,53.8,59.9,54.8,50.7,92,82,62,30.14,29.98,3,0,5,0.00
2013-9-30,71.3,63.2,57.3,61.6,57.8,55.3,95,83,60,30.04,29.95,8,0,8,0.00
2013-10-1,77.4,63.7,53.9,64.4,57.3,53.1,98,81,51,30.08,29.98,5,0,5,0.00
2013-10-2,78.3,65.5,56.2,63.9,58.3,54.9,96,80,50,30.10,30.01,7,0,7,0.00
2013-10-3,78.5,66.5,58.6,64.0,60.2,56.7,97,82,52,30.09,30.00,5,0,5,0.00
2013-10-4,79.8,67.5,58.4,66.5,61.3,57.3,98,82,52,30.08,30.01,11,0,11,0.01
2013-10-5,80.9,69.0,60.1,66.2,62.0,58.8,97,80,51,30.08,29.97,5,0,5,0.00
2013-10-6,77.7,67.8,59.9,65.8,62.1,59.3,99,83,59,29.98,29.81,7,0,7,0.00
2013-10-7,67.3,61.8,53.3,64.1,56.4,46.6,100,84,59,29.97,29.74,17,1,19,2.11
2013-10-8,63.2,54.8,47.6,48.9,45.2,41.5,91,71,52,30.21,29.97,12,2,16,0.00
2013-10-9,68.4,54.4,43.1,48.8,43.9,36.7,96,71,40,30.23,30.09,9,0,9,0.00
2013-10-18,56.7,56.5,55.7,53.7,53.3,53.0,91,89,88,29.93,29.92,0,0,0,0.00
2013-10-19,61.3,56.3,50.8,57.8,52.4,41.8,98,87,56,29.92,29.77,10,0,11,0.00
2013-10-20,61.3,51.0,40.1,44.0,39.7,34.9,89,67,39,30.07,29.89,13,1,13,0.00
2013-10-21,63.2,51.1,39.9,51.2,45.3,38.6,97,82,59,30.13,29.94,9,0,9,0.00
2013-10-22,66.6,56.5,50.5,54.3,50.5,44.6,96,82,48,29.94,29.73,5,0,5,0.02
2013-10-23,56.2,48.9,39.8,51.6,36.7,26.8,92,63,43,30.00,29.66,31,3,31,0.00
2013-10-24,51.7,42.8,35.8,35.6,30.7,26.8,76,62,48,30.12,30.00,19,2,19,0.00
2013-10-25,42.9,41.3,40.3,27.9,26.2,24.8,58,55,52,30.35,30.31,18,5,18,0.01
2013-10-31,63.5,61.5,59.5,59.5,55.4,53.4,94,81,71,30.01,29.72,8,1,11,0.01
2013-11-1,71.5,63.9,57.0,61.2,56.5,43.3,97,78,52,29.77,29.56,18,1,18,0.03
2013-11-2,61.3,55.3,47.9,45.5,38.0,31.5,65,52,37,29.92,29.63,16,3,27,0.00
2013-11-3,54.1,46.9,38.6,36.6,32.3,28.6,77,58,39,30.33,29.91,18,1,18,0.00
2013-11-4,52.3,42.8,34.6,33.6,29.0,23.4,83,60,37,30.51,30.32,11,1,11,0.00
2013-11-5,55.3,44.5,31.9,47.1,34.7,26.2,96,70,40,30.55,30.39,7,0,7,0.02
2013-11-6,62.3,52.8,47.9,53.5,49.2,46.9,100,88,64,30.39,30.07,3,0,6,0.06
2013-11-7,59.5,50.6,40.2,56.6,42.4,27.1,98,76,50,30.10,29.93,23,3,31,0.01
2013-11-8,49.8,41.4,33.4,27.4,22.1,15.1,71,48,25,30.28,30.09,21,2,21,0.00
2013-11-9,53.9,42.1,30.7,29.8,25.0,21.3,73,53,31,30.34,30.20,11,1,11,0.00
2013-11-15,48.4,47.0,46.4,46.2,45.7,44.4,99,95,86,30.20,30.16,4,0,5,0.12
2013-11-16,47.4,46.5,46.1,47.4,46.3,45.8,100,99,99,30.19,30.15,3,0,3,0.01
2013-11-22,58.9,58.2,56.0,53.7,52.3,51.3,92,81,78,30.05,30.03,10,2,10,0.03
2013-11-23,58.3,48.7,33.4,51.5,35.2,15.3,88,61,33,30.20,30.02,27,4,27,0.00
2013-11-24,33.2,28.1,22.5,16.5,3.5,-5.4,55,36,19,30.50,30.19,24,3,24,0.00
2013-11-25,33.2,27.7,19.4,26.3,9.2,1.8,87,47,31,30.51,30.31,6,0,6,0.00
2013-11-26,42.5,36.4,29.3,42.5,35.8,26.3,100,98,87,30.31,29.59,6,0,6,0.64
2013-11-27,44.9,33.2,24.4,44.5,23.4,10.9,100,68,51,30.17,29.52,35,5,35,0.02
2013-11-28,41.8,29.8,18.8,20.7,14.8,10.3,74,55,31,30.44,30.16,22,1,22,0.00
2013-11-29,50.7,38.5,27.2,23.9,19.1,12.1,74,47,28,30.58,30.42,10,1,10,0.00
2013-11-30,40.9,32.6,26.7,23.4,20.7,18.6,77,62,44,30.63,30.35,6,1,6,0.00
2013-12-1,54.5,38.7,25.7,34.0,26.9,20.1,81,64,42,30.36,29.97,5,0,5,0.00
2013-12-2,53.2,43.6,33.8,37.1,32.3,27.3,82,65,48,29.98,29.76,7,0,7,0.00
2013-12-3,57.8,50.5,40.5,49.0,43.9,33.2,97,78,65,29.89,29.80,4,0,5,0.01
2013-12-4,55.3,52.0,49.4,53.9,51.3,49.0,100,98,88,30.00,29.87,4,0,4,0.02
2013-12-5,61.3,57.6,53.5,61.3,57.6,53.5,100,100,100,30.03,29.90,5,0,5,0.37
2013-12-6,69.6,64.3,55.6,64.0,61.8,53.5,100,92,78,29.94,29.82,23,3,23,0.40
2013-12-7,56.2,48.8,37.3,55.7,41.5,33.0,99,77,59,30.38,29.90,18,2,18,0.02
2013-12-8,37.2,32.8,30.3,35.8,32.1,29.8,99,97,91,30.39,30.22,10,1,10,0.24
2013-12-9,48.8,39.2,31.0,48.8,38.7,30.8,100,98,89,30.25,29.98,4,0,4,0.28
2013-12-10,46.4,43.6,42.8,46.4,42.9,38.7,100,97,89,29.99,29.86,22,0,22,0.24
2013-12-14,38.5,35.6,34.0,36.0,33.3,21.5,100,93,52,30.22,29.75,5,0,5,0.69
2013-12-15,43.2,36.8,31.5,42.3,29.9,23.8,100,77,63,30.04,29.69,27,4,27,0.01
2013-12-16,54.1,41.9,31.3,30.5,26.4,22.2,77,56,32,30.11,30.01,18,2,18,0.00
2013-12-17,59.0,45.9,36.0,38.1,29.5,20.2,80,54,31,30.06,29.84,32,3,32,0.01
2013-12-18,45.2,36.6,30.9,21.5,12.1,3.7,54,38,20,30.26,29.96,32,3,32,0.00
2013-12-19,60.7,45.6,31.9,27.4,20.2,8.1,58,37,25,30.25,30.13,6,0,7,0.00
2013-12-20,58.0,48.9,37.8,40.8,31.6,21.8,69,52,37,30.17,30.04,10,0,10,0.00
2013-12-21,58.0,53.9,51.0,58.0,50.2,40.8,100,88,67,30.07,29.95,7,0,7,0.13
2013-12-23,55.4,46.2,34.1,50.0,37.6,26.1,89,72,62,30.14,29.98,21,4,21,0.39
2013-12-24,35.3,30.8,23.8,27.7,19.3,9.9,83,63,45,30.42,30.13,28,3,28,0.00
2013-12-25,35.0,26.1,18.0,17.2,9.0,-0.6,80,51,26,30.52,30.34,8,0,8,0.00
2013-12-26,47.0,34.7,21.9,24.5,18.1,9.7,70,52,31,30.35,30.22,21,2,21,0.00
2013-12-27,48.0,36.6,27.8,24.9,20.2,14.9,71,53,29,30.44,30.31,6,0,6,0.00
2013-12-28,50.7,36.5,30.0,27.0,21.4,17.3,68,55,34,30.37,30.25,4,0,4,0.00
2013-12-30,47.6,41.7,38.0,36.2,33.3,20.3,81,72,48,30.07,29.99,15,1,15,0.00
2013-12-31,41.2,36.4,29.4,23.5,18.9,13.7,65,49,35,30.34,30.05,28,3,28,0.00
2014-1-1,44.2,31.5,28.5,25.1,19.0,15.9,68,60,45,30.35,30.25,6,0,6,0.00
2014-1-2,40.2,36.0,23.6,39.0,31.5,13.2,99,84,64,29.84,29.62,37,3,37,0.08